Saint-Pascal, Canada
Current Conditions -  °F | °C
As of 3:53 AM on Friday 24 Oct 2014 (Local Time) from KFVE Reporting Station
Overcast Overcast  
Wind Chill: 37°   Ceiling: 4800
Heat Index: 43°   Visibility: 10mi
Dew Point: 30°   Wind: 10mph
Humidity: 60%   Direction: 20°NNE
Pressure: 29.85"   Gusts: 20mph
Location:  47.52°N, 69.82°W
Report Text: KFVE 240753Z AUTO 02009G17KT 10SM OVC048 06/M01 A2985 RMK AO2 RAB34E46 SLP114 P0000 T00611011
Loading
Personal Weather Stations






























Interactive Weather Map
Tropical Storm Tracking
New forecast layout! Learn more

10-Day Weather Forecast

Advertisements
Track Severe Weather on mobile